sensor_id;sensor_type;location;lat;lon;timestamp;P1;durP1;ratioP1;P2;durP2;ratioP2
15114;SDS011;7658;51.456;7.622;2022-07-23T00:01:24;20.33;;;13.15;;
15114;SDS011;7658;51.456;7.622;2022-07-23T00:03:49;21.13;;;13.07;;
15114;SDS011;7658;51.456;7.622;2022-07-23T00:06:17;22.35;;;14.20;;
15114;SDS011;7658;51.456;7.622;2022-07-23T00:08:42;18.02;;;13.07;;
15114;SDS011;7658;51.456;7.622;2022-07-23T00:11:08;23.50;;;13.63;;
15114;SDS011;7658;51.456;7.622;2022-07-23T00:13:34;21.50;;;14.00;;
15114;SDS011;7658;51.456;7.622;2022-07-23T00:16:00;21.88;;;13.70;;
15114;SDS011;7658;51.456;7.622;2022-07-23T00:18:26;20.52;;;13.65;;
15114;SDS011;7658;51.456;7.622;2022-07-23T00:20:52;26.25;;;14.35;;
15114;SDS011;7658;51.456;7.622;2022-07-23T00:23:18;21.13;;;13.93;;
15114;SDS011;7658;51.456;7.622;2022-07-23T00:25:43;21.92;;;13.15;;
15114;SDS011;7658;51.456;7.622;2022-07-23T00:28:12;19.23;;;13.35;;
15114;SDS011;7658;51.456;7.622;2022-07-23T00:30:38;23.77;;;14.32;;
15114;SDS011;7658;51.456;7.622;2022-07-23T00:33:05;22.60;;;13.75;;
15114;SDS011;7658;51.456;7.622;2022-07-23T00:35:33;21.52;;;15.15;;
15114;SDS011;7658;51.456;7.622;2022-07-23T00:38:01;23.98;;;14.82;;
15114;SDS011;7658;51.456;7.622;2022-07-23T00:40:28;23.10;;;15.13;;
15114;SDS011;7658;51.456;7.622;2022-07-23T00:42:54;26.83;;;15.77;;
15114;SDS011;7658;51.456;7.622;2022-07-23T00:45:21;25.13;;;15.95;;
15114;SDS011;7658;51.456;7.622;2022-07-23T00:47:47;26.60;;;16.38;;
15114;SDS011;7658;51.456;7.622;2022-07-23T00:50:13;22.95;;;15.98;;
15114;SDS011;7658;51.456;7.622;2022-07-23T00:52:39;27.65;;;15.88;;
15114;SDS011;7658;51.456;7.622;2022-07-23T00:55:06;27.75;;;15.48;;
15114;SDS011;7658;51.456;7.622;2022-07-23T00:57:33;26.10;;;16.33;;
15114;SDS011;7658;51.456;7.622;2022-07-23T00:59:59;22.02;;;16.27;;
15114;SDS011;7658;51.456;7.622;2022-07-23T01:02:25;25.75;;;16.45;;
15114;SDS011;7658;51.456;7.622;2022-07-23T01:04:51;31.05;;;16.98;;
15114;SDS011;7658;51.456;7.622;2022-07-23T01:07:17;31.45;;;19.48;;
15114;SDS011;7658;51.456;7.622;2022-07-23T01:09:44;30.00;;;19.02;;
15114;SDS011;7658;51.456;7.622;2022-07-23T01:12:11;32.28;;;19.63;;
15114;SDS011;7658;51.456;7.622;2022-07-23T01:14:37;32.55;;;19.55;;
15114;SDS011;7658;51.456;7.622;2022-07-23T01:17:03;36.35;;;20.63;;
15114;SDS011;7658;51.456;7.622;2022-07-23T01:19:29;35.85;;;21.25;;
15114;SDS011;7658;51.456;7.622;2022-07-23T01:21:56;36.13;;;20.73;;
15114;SDS011;7658;51.456;7.622;2022-07-23T01:24:23;32.45;;;21.35;;
15114;SDS011;7658;51.456;7.622;2022-07-23T01:26:49;33.85;;;20.95;;
15114;SDS011;7658;51.456;7.622;2022-07-23T01:29:16;33.05;;;20.25;;
15114;SDS011;7658;51.456;7.622;2022-07-23T01:31:42;35.50;;;20.98;;
15114;SDS011;7658;51.456;7.622;2022-07-23T01:34:08;33.50;;;21.63;;
15114;SDS011;7658;51.456;7.622;2022-07-23T01:36:34;34.85;;;20.75;;
15114;SDS011;7658;51.456;7.622;2022-07-23T01:39:00;37.78;;;22.42;;
15114;SDS011;7658;51.456;7.622;2022-07-23T01:41:26;38.30;;;23.40;;
15114;SDS011;7658;51.456;7.622;2022-07-23T01:43:52;39.55;;;21.98;;
15114;SDS011;7658;51.456;7.622;2022-07-23T01:46:17;42.40;;;22.92;;
15114;SDS011;7658;51.456;7.622;2022-07-23T01:48:43;41.47;;;22.33;;
15114;SDS011;7658;51.456;7.622;2022-07-23T01:51:09;44.47;;;25.13;;
15114;SDS011;7658;51.456;7.622;2022-07-23T01:53:35;41.92;;;23.88;;
15114;SDS011;7658;51.456;7.622;2022-07-23T01:56:00;35.60;;;21.45;;
15114;SDS011;7658;51.456;7.622;2022-07-23T01:58:28;30.65;;;20.45;;
15114;SDS011;7658;51.456;7.622;2022-07-23T02:00:54;40.38;;;21.92;;
15114;SDS011;7658;51.456;7.622;2022-07-23T02:03:21;35.15;;;21.35;;
15114;SDS011;7658;51.456;7.622;2022-07-23T02:05:47;37.67;;;21.75;;
15114;SDS011;7658;51.456;7.622;2022-07-23T02:08:14;42.63;;;22.08;;
15114;SDS011;7658;51.456;7.622;2022-07-23T02:10:40;37.42;;;21.88;;
15114;SDS011;7658;51.456;7.622;2022-07-23T02:13:06;38.63;;;21.60;;
15114;SDS011;7658;51.456;7.622;2022-07-23T02:15:32;35.17;;;20.08;;
15114;SDS011;7658;51.456;7.622;2022-07-23T02:17:58;35.97;;;21.70;;
15114;SDS011;7658;51.456;7.622;2022-07-23T02:20:24;37.50;;;22.75;;
15114;SDS011;7658;51.456;7.622;2022-07-23T02:22:50;38.78;;;21.60;;
15114;SDS011;7658;51.456;7.622;2022-07-23T02:25:16;33.55;;;21.83;;
15114;SDS011;7658;51.456;7.622;2022-07-23T02:27:42;34.95;;;21.08;;
15114;SDS011;7658;51.456;7.622;2022-07-23T02:30:08;38.22;;;21.50;;
15114;SDS011;7658;51.456;7.622;2022-07-23T02:32:34;42.35;;;23.83;;
15114;SDS011;7658;51.456;7.622;2022-07-23T02:35:01;33.08;;;21.15;;
15114;SDS011;7658;51.456;7.622;2022-07-23T02:37:27;32.83;;;20.10;;
15114;SDS011;7658;51.456;7.622;2022-07-23T02:39:53;34.50;;;22.52;;
15114;SDS011;7658;51.456;7.622;2022-07-23T02:42:19;34.33;;;20.40;;
15114;SDS011;7658;51.456;7.622;2022-07-23T02:44:45;33.85;;;20.75;;
15114;SDS011;7658;51.456;7.622;2022-07-23T02:47:11;36.60;;;22.80;;
15114;SDS011;7658;51.456;7.622;2022-07-23T02:49:36;36.85;;;23.25;;
15114;SDS011;7658;51.456;7.622;2022-07-23T02:52:02;39.60;;;23.60;;
15114;SDS011;7658;51.456;7.622;2022-07-23T02:54:28;41.65;;;23.55;;
15114;SDS011;7658;51.456;7.622;2022-07-23T02:56:54;37.83;;;23.23;;
15114;SDS011;7658;51.456;7.622;2022-07-23T02:59:20;42.55;;;23.20;;
15114;SDS011;7658;51.456;7.622;2022-07-23T03:01:45;41.08;;;23.52;;
15114;SDS011;7658;51.456;7.622;2022-07-23T03:04:11;38.70;;;23.52;;
15114;SDS011;7658;51.456;7.622;2022-07-23T03:06:37;39.75;;;22.17;;
15114;SDS011;7658;51.456;7.622;2022-07-23T03:09:05;35.70;;;21.52;;
15114;SDS011;7658;51.456;7.622;2022-07-23T03:11:31;37.38;;;21.98;;
15114;SDS011;7658;51.456;7.622;2022-07-23T03:13:57;34.83;;;21.30;;
15114;SDS011;7658;51.456;7.622;2022-07-23T03:16:22;33.28;;;20.95;;
15114;SDS011;7658;51.456;7.622;2022-07-23T03:18:48;36.83;;;21.35;;
15114;SDS011;7658;51.456;7.622;2022-07-23T03:21:14;32.58;;;20.20;;
15114;SDS011;7658;51.456;7.622;2022-07-23T03:23:40;33.03;;;21.08;;
15114;SDS011;7658;51.456;7.622;2022-07-23T03:26:05;35.22;;;20.63;;
15114;SDS011;7658;51.456;7.622;2022-07-23T03:28:31;37.47;;;22.10;;
15114;SDS011;7658;51.456;7.622;2022-07-23T03:30:57;31.00;;;19.90;;
15114;SDS011;7658;51.456;7.622;2022-07-23T03:33:23;38.78;;;21.90;;
15114;SDS011;7658;51.456;7.622;2022-07-23T03:35:49;35.92;;;22.13;;
15114;SDS011;7658;51.456;7.622;2022-07-23T03:38:15;33.70;;;20.50;;
15114;SDS011;7658;51.456;7.622;2022-07-23T03:40:41;32.70;;;20.77;;
15114;SDS011;7658;51.456;7.622;2022-07-23T03:43:07;28.75;;;19.75;;
15114;SDS011;7658;51.456;7.622;2022-07-23T03:45:33;37.05;;;21.40;;
15114;SDS011;7658;51.456;7.622;2022-07-23T03:47:59;36.22;;;21.42;;
15114;SDS011;7658;51.456;7.622;2022-07-23T03:50:25;34.08;;;20.95;;
15114;SDS011;7658;51.456;7.622;2022-07-23T03:52:51;32.80;;;19.27;;
15114;SDS011;7658;51.456;7.622;2022-07-23T03:55:17;30.35;;;19.65;;
15114;SDS011;7658;51.456;7.622;2022-07-23T03:57:43;33.20;;;21.15;;
15114;SDS011;7658;51.456;7.622;2022-07-23T04:00:09;34.72;;;21.05;;
15114;SDS011;7658;51.456;7.622;2022-07-23T04:02:37;36.78;;;20.65;;
15114;SDS011;7658;51.456;7.622;2022-07-23T04:05:03;36.58;;;19.83;;
15114;SDS011;7658;51.456;7.622;2022-07-23T04:07:29;30.08;;;19.00;;
15114;SDS011;7658;51.456;7.622;2022-07-23T04:09:56;39.22;;;21.60;;
15114;SDS011;7658;51.456;7.622;2022-07-23T04:12:22;42.75;;;23.00;;
15114;SDS011;7658;51.456;7.622;2022-07-23T04:14:48;33.13;;;20.13;;
15114;SDS011;7658;51.456;7.622;2022-07-23T04:17:14;47.28;;;23.92;;
15114;SDS011;7658;51.456;7.622;2022-07-23T04:19:40;33.13;;;20.00;;
15114;SDS011;7658;51.456;7.622;2022-07-23T04:22:07;34.17;;;20.92;;
15114;SDS011;7658;51.456;7.622;2022-07-23T04:24:33;39.15;;;23.00;;
15114;SDS011;7658;51.456;7.622;2022-07-23T04:26:59;35.13;;;21.08;;
15114;SDS011;7658;51.456;7.622;2022-07-23T04:29:25;33.50;;;21.80;;
15114;SDS011;7658;51.456;7.622;2022-07-23T04:31:51;44.63;;;23.73;;
15114;SDS011;7658;51.456;7.622;2022-07-23T04:34:17;34.70;;;22.17;;
15114;SDS011;7658;51.456;7.622;2022-07-23T04:36:42;32.72;;;20.70;;
15114;SDS011;7658;51.456;7.622;2022-07-23T04:39:08;36.35;;;21.70;;
15114;SDS011;7658;51.456;7.622;2022-07-23T04:41:34;41.05;;;21.95;;
15114;SDS011;7658;51.456;7.622;2022-07-23T04:44:00;29.67;;;20.50;;
15114;SDS011;7658;51.456;7.622;2022-07-23T04:46:26;31.58;;;20.83;;
15114;SDS011;7658;51.456;7.622;2022-07-23T04:48:53;38.35;;;22.73;;
15114;SDS011;7658;51.456;7.622;2022-07-23T04:51:18;35.20;;;22.20;;
15114;SDS011;7658;51.456;7.622;2022-07-23T04:53:44;38.65;;;23.35;;
15114;SDS011;7658;51.456;7.622;2022-07-23T04:56:10;35.42;;;21.58;;
15114;SDS011;7658;51.456;7.622;2022-07-23T04:58:36;42.05;;;22.38;;
15114;SDS011;7658;51.456;7.622;2022-07-23T05:01:02;30.50;;;19.75;;
15114;SDS011;7658;51.456;7.622;2022-07-23T05:03:27;40.25;;;22.45;;
15114;SDS011;7658;51.456;7.622;2022-07-23T05:05:53;34.13;;;21.58;;
15114;SDS011;7658;51.456;7.622;2022-07-23T05:08:19;32.97;;;21.58;;
15114;SDS011;7658;51.456;7.622;2022-07-23T05:10:45;35.22;;;19.95;;
15114;SDS011;7658;51.456;7.622;2022-07-23T05:13:11;28.33;;;19.65;;
15114;SDS011;7658;51.456;7.622;2022-07-23T05:15:37;39.42;;;21.85;;
15114;SDS011;7658;51.456;7.622;2022-07-23T05:18:02;35.50;;;20.85;;
15114;SDS011;7658;51.456;7.622;2022-07-23T05:20:28;33.75;;;21.25;;
15114;SDS011;7658;51.456;7.622;2022-07-23T05:22:54;42.13;;;22.83;;
15114;SDS011;7658;51.456;7.622;2022-07-23T05:25:20;34.10;;;22.05;;
15114;SDS011;7658;51.456;7.622;2022-07-23T05:27:46;37.47;;;23.60;;
15114;SDS011;7658;51.456;7.622;2022-07-23T05:30:11;46.17;;;23.23;;
15114;SDS011;7658;51.456;7.622;2022-07-23T05:32:37;36.92;;;22.30;;
15114;SDS011;7658;51.456;7.622;2022-07-23T05:35:06;44.42;;;23.08;;
15114;SDS011;7658;51.456;7.622;2022-07-23T05:37:32;49.25;;;24.25;;
15114;SDS011;7658;51.456;7.622;2022-07-23T05:40:05;35.22;;;21.70;;
15114;SDS011;7658;51.456;7.622;2022-07-23T05:42:36;34.05;;;21.50;;
15114;SDS011;7658;51.456;7.622;2022-07-23T05:45:03;42.55;;;22.33;;
15114;SDS011;7658;51.456;7.622;2022-07-23T05:47:43;40.88;;;23.08;;
15114;SDS011;7658;51.456;7.622;2022-07-23T05:50:11;44.92;;;24.83;;
15114;SDS011;7658;51.456;7.622;2022-07-23T05:52:37;50.35;;;25.63;;
15114;SDS011;7658;51.456;7.622;2022-07-23T05:55:03;48.80;;;26.17;;
15114;SDS011;7658;51.456;7.622;2022-07-23T05:57:29;40.65;;;24.30;;
15114;SDS011;7658;51.456;7.622;2022-07-23T05:59:55;54.78;;;27.20;;
15114;SDS011;7658;51.456;7.622;2022-07-23T06:02:21;48.95;;;26.60;;
15114;SDS011;7658;51.456;7.622;2022-07-23T06:04:47;48.28;;;25.85;;
15114;SDS011;7658;51.456;7.622;2022-07-23T06:07:12;40.55;;;23.38;;
15114;SDS011;7658;51.456;7.622;2022-07-23T06:09:38;47.65;;;24.92;;
15114;SDS011;7658;51.456;7.622;2022-07-23T06:12:04;58.50;;;27.98;;
15114;SDS011;7658;51.456;7.622;2022-07-23T06:14:30;46.60;;;26.45;;
15114;SDS011;7658;51.456;7.622;2022-07-23T06:16:56;51.65;;;26.80;;
15114;SDS011;7658;51.456;7.622;2022-07-23T06:19:21;52.70;;;27.73;;
15114;SDS011;7658;51.456;7.622;2022-07-23T06:21:48;53.80;;;28.08;;
15114;SDS011;7658;51.456;7.622;2022-07-23T06:24:14;53.38;;;28.88;;
15114;SDS011;7658;51.456;7.622;2022-07-23T06:26:40;56.03;;;30.35;;
15114;SDS011;7658;51.456;7.622;2022-07-23T06:29:06;58.78;;;30.15;;
15114;SDS011;7658;51.456;7.622;2022-07-23T06:31:32;57.70;;;29.48;;
15114;SDS011;7658;51.456;7.622;2022-07-23T06:33:58;63.72;;;32.70;;
15114;SDS011;7658;51.456;7.622;2022-07-23T06:36:24;61.72;;;30.65;;
15114;SDS011;7658;51.456;7.622;2022-07-23T06:38:50;65.88;;;33.22;;
15114;SDS011;7658;51.456;7.622;2022-07-23T06:41:15;57.95;;;29.25;;
15114;SDS011;7658;51.456;7.622;2022-07-23T06:43:41;63.65;;;31.83;;
15114;SDS011;7658;51.456;7.622;2022-07-23T06:46:07;71.13;;;31.90;;
15114;SDS011;7658;51.456;7.622;2022-07-23T06:48:32;64.75;;;33.08;;
15114;SDS011;7658;51.456;7.622;2022-07-23T06:51:00;55.30;;;30.55;;
15114;SDS011;7658;51.456;7.622;2022-07-23T06:53:27;52.92;;;28.70;;
15114;SDS011;7658;51.456;7.622;2022-07-23T06:55:53;52.42;;;29.60;;
15114;SDS011;7658;51.456;7.622;2022-07-23T06:58:19;43.53;;;26.65;;
15114;SDS011;7658;51.456;7.622;2022-07-23T07:00:45;50.15;;;27.35;;
15114;SDS011;7658;51.456;7.622;2022-07-23T07:03:11;50.28;;;27.77;;
15114;SDS011;7658;51.456;7.622;2022-07-23T07:05:36;47.17;;;25.73;;
15114;SDS011;7658;51.456;7.622;2022-07-23T07:08:04;48.33;;;28.13;;
15114;SDS011;7658;51.456;7.622;2022-07-23T07:10:30;44.03;;;25.25;;
15114;SDS011;7658;51.456;7.622;2022-07-23T07:12:56;47.40;;;28.88;;
15114;SDS011;7658;51.456;7.622;2022-07-23T07:15:22;46.03;;;25.13;;
15114;SDS011;7658;51.456;7.622;2022-07-23T07:17:48;46.15;;;25.23;;
15114;SDS011;7658;51.456;7.622;2022-07-23T07:20:14;54.85;;;30.10;;
15114;SDS011;7658;51.456;7.622;2022-07-23T07:22:40;45.42;;;27.90;;
15114;SDS011;7658;51.456;7.622;2022-07-23T07:25:06;55.75;;;31.70;;
15114;SDS011;7658;51.456;7.622;2022-07-23T07:27:32;45.63;;;28.45;;
15114;SDS011;7658;51.456;7.622;2022-07-23T07:29:58;38.95;;;22.80;;
15114;SDS011;7658;51.456;7.622;2022-07-23T07:32:24;55.97;;;30.20;;
15114;SDS011;7658;51.456;7.622;2022-07-23T07:34:50;45.58;;;26.77;;
15114;SDS011;7658;51.456;7.622;2022-07-23T07:37:16;44.70;;;26.08;;
15114;SDS011;7658;51.456;7.622;2022-07-23T07:39:41;42.88;;;25.17;;
15114;SDS011;7658;51.456;7.622;2022-07-23T07:42:07;43.95;;;25.55;;
15114;SDS011;7658;51.456;7.622;2022-07-23T07:44:33;57.47;;;30.73;;
15114;SDS011;7658;51.456;7.622;2022-07-23T07:46:59;68.35;;;36.38;;
15114;SDS011;7658;51.456;7.622;2022-07-23T07:49:24;53.15;;;33.05;;
15114;SDS011;7658;51.456;7.622;2022-07-23T07:51:50;62.05;;;33.85;;
15114;SDS011;7658;51.456;7.622;2022-07-23T07:54:16;43.88;;;27.60;;
15114;SDS011;7658;51.456;7.622;2022-07-23T07:56:42;59.40;;;33.33;;
15114;SDS011;7658;51.456;7.622;2022-07-23T07:59:07;55.15;;;31.95;;
15114;SDS011;7658;51.456;7.622;2022-07-23T08:01:33;72.30;;;36.15;;
15114;SDS011;7658;51.456;7.622;2022-07-23T08:03:59;52.05;;;31.00;;
15114;SDS011;7658;51.456;7.622;2022-07-23T08:06:25;53.08;;;32.20;;
15114;SDS011;7658;51.456;7.622;2022-07-23T08:08:51;55.97;;;35.00;;
15114;SDS011;7658;51.456;7.622;2022-07-23T08:11:16;49.83;;;31.55;;
15114;SDS011;7658;51.456;7.622;2022-07-23T08:13:42;46.72;;;29.13;;
15114;SDS011;7658;51.456;7.622;2022-07-23T08:16:09;50.38;;;30.52;;
15114;SDS011;7658;51.456;7.622;2022-07-23T08:18:36;47.03;;;30.17;;
15114;SDS011;7658;51.456;7.622;2022-07-23T08:21:01;55.67;;;34.45;;
15114;SDS011;7658;51.456;7.622;2022-07-23T08:23:29;48.38;;;30.27;;
15114;SDS011;7658;51.456;7.622;2022-07-23T08:25:55;43.85;;;30.60;;
15114;SDS011;7658;51.456;7.622;2022-07-23T08:28:22;47.10;;;30.23;;
15114;SDS011;7658;51.456;7.622;2022-07-23T08:30:47;47.83;;;30.92;;
15114;SDS011;7658;51.456;7.622;2022-07-23T08:33:14;46.65;;;30.77;;
15114;SDS011;7658;51.456;7.622;2022-07-23T08:35:43;45.58;;;29.52;;
15114;SDS011;7658;51.456;7.622;2022-07-23T08:38:12;40.70;;;27.60;;
15114;SDS011;7658;51.456;7.622;2022-07-23T08:40:49;52.53;;;31.88;;
15114;SDS011;7658;51.456;7.622;2022-07-23T08:43:20;48.97;;;31.15;;
15114;SDS011;7658;51.456;7.622;2022-07-23T08:45:48;42.13;;;29.15;;
15114;SDS011;7658;51.456;7.622;2022-07-23T08:48:20;45.97;;;31.42;;
15114;SDS011;7658;51.456;7.622;2022-07-23T08:50:50;48.13;;;31.48;;
15114;SDS011;7658;51.456;7.622;2022-07-23T08:53:18;42.92;;;30.60;;
15114;SDS011;7658;51.456;7.622;2022-07-23T08:55:44;44.40;;;30.70;;
15114;SDS011;7658;51.456;7.622;2022-07-23T08:58:14;47.90;;;33.42;;
15114;SDS011;7658;51.456;7.622;2022-07-23T09:00:41;38.08;;;29.52;;
15114;SDS011;7658;51.456;7.622;2022-07-23T09:03:07;39.63;;;28.02;;
15114;SDS011;7658;51.456;7.622;2022-07-23T09:05:37;40.65;;;29.88;;
15114;SDS011;7658;51.456;7.622;2022-07-23T09:08:04;42.63;;;30.85;;
15114;SDS011;7658;51.456;7.622;2022-07-23T09:10:45;40.97;;;30.73;;
15114;SDS011;7658;51.456;7.622;2022-07-23T09:15:56;38.40;;;28.92;;
15114;SDS011;7658;51.456;7.622;2022-07-23T09:18:30;37.95;;;29.63;;
15114;SDS011;7658;51.456;7.622;2022-07-23T09:21:17;40.72;;;31.58;;
15114;SDS011;7658;51.456;7.622;2022-07-23T09:24:03;34.70;;;27.98;;
15114;SDS011;7658;51.456;7.622;2022-07-23T09:34:09;38.15;;;28.52;;
15114;SDS011;7658;51.456;7.622;2022-07-23T09:36:37;41.25;;;31.23;;
15114;SDS011;7658;51.456;7.622;2022-07-23T09:39:03;36.47;;;30.77;;
15114;SDS011;7658;51.456;7.622;2022-07-23T09:41:48;41.60;;;31.13;;
15114;SDS011;7658;51.456;7.622;2022-07-23T09:44:18;31.52;;;26.42;;
15114;SDS011;7658;51.456;7.622;2022-07-23T09:46:49;28.10;;;24.08;;
15114;SDS011;7658;51.456;7.622;2022-07-23T09:49:20;24.80;;;22.15;;
15114;SDS011;7658;51.456;7.622;2022-07-23T09:51:48;27.00;;;22.88;;
15114;SDS011;7658;51.456;7.622;2022-07-23T09:54:24;20.48;;;18.10;;
15114;SDS011;7658;51.456;7.622;2022-07-23T09:56:56;23.70;;;19.48;;
15114;SDS011;7658;51.456;7.622;2022-07-23T09:59:25;25.77;;;21.27;;
15114;SDS011;7658;51.456;7.622;2022-07-23T10:01:57;22.75;;;20.17;;
15114;SDS011;7658;51.456;7.622;2022-07-23T10:04:25;23.80;;;20.58;;
15114;SDS011;7658;51.456;7.622;2022-07-23T10:06:53;24.08;;;20.65;;
15114;SDS011;7658;51.456;7.622;2022-07-23T10:09:27;17.65;;;14.05;;
15114;SDS011;7658;51.456;7.622;2022-07-23T10:11:58;16.02;;;14.18;;
15114;SDS011;7658;51.456;7.622;2022-07-23T10:14:49;20.75;;;17.65;;
15114;SDS011;7658;51.456;7.622;2022-07-23T10:17:16;18.73;;;16.73;;
15114;SDS011;7658;51.456;7.622;2022-07-23T10:19:42;18.40;;;14.90;;
15114;SDS011;7658;51.456;7.622;2022-07-23T10:22:13;15.82;;;11.73;;
15114;SDS011;7658;51.456;7.622;2022-07-23T10:25:29;16.45;;;14.68;;
15114;SDS011;7658;51.456;7.622;2022-07-23T10:36:11;13.95;;;11.50;;
15114;SDS011;7658;51.456;7.622;2022-07-23T10:38:54;15.63;;;11.93;;
15114;SDS011;7658;51.456;7.622;2022-07-23T10:41:35;13.15;;;11.13;;
15114;SDS011;7658;51.456;7.622;2022-07-23T10:44:10;10.48;;;9.48;;
15114;SDS011;7658;51.456;7.622;2022-07-23T10:47:03;11.55;;;10.35;;
15114;SDS011;7658;51.456;7.622;2022-07-23T10:49:49;11.13;;;9.15;;
15114;SDS011;7658;51.456;7.622;2022-07-23T10:52:18;10.30;;;8.50;;
15114;SDS011;7658;51.456;7.622;2022-07-23T10:57:47;12.25;;;7.15;;
15114;SDS011;7658;51.456;7.622;2022-07-23T11:00:20;9.40;;;6.88;;
15114;SDS011;7658;51.456;7.622;2022-07-23T11:02:52;8.45;;;6.43;;
15114;SDS011;7658;51.456;7.622;2022-07-23T11:05:23;9.50;;;6.28;;
15114;SDS011;7658;51.456;7.622;2022-07-23T11:10:40;8.02;;;5.57;;
15114;SDS011;7658;51.456;7.622;2022-07-23T11:24:07;7.93;;;4.55;;
15114;SDS011;7658;51.456;7.622;2022-07-23T11:32:03;5.43;;;3.92;;
15114;SDS011;7658;51.456;7.622;2022-07-23T11:36:59;6.97;;;4.15;;
15114;SDS011;7658;51.456;7.622;2022-07-23T11:39:27;6.68;;;4.78;;
15114;SDS011;7658;51.456;7.622;2022-07-23T11:41:55;5.88;;;4.60;;
15114;SDS011;7658;51.456;7.622;2022-07-23T11:44:34;6.40;;;4.18;;
15114;SDS011;7658;51.456;7.622;2022-07-23T11:47:03;5.95;;;4.18;;
15114;SDS011;7658;51.456;7.622;2022-07-23T11:49:29;7.72;;;4.90;;
15114;SDS011;7658;51.456;7.622;2022-07-23T11:57:24;7.18;;;4.38;;
15114;SDS011;7658;51.456;7.622;2022-07-23T11:59:52;5.05;;;3.55;;
15114;SDS011;7658;51.456;7.622;2022-07-23T12:02:21;5.70;;;4.18;;
15114;SDS011;7658;51.456;7.622;2022-07-23T12:04:48;4.85;;;3.55;;
15114;SDS011;7658;51.456;7.622;2022-07-23T12:10:00;5.55;;;4.75;;
15114;SDS011;7658;51.456;7.622;2022-07-23T12:12:35;8.23;;;4.80;;
15114;SDS011;7658;51.456;7.622;2022-07-23T12:15:02;5.28;;;4.13;;
15114;SDS011;7658;51.456;7.622;2022-07-23T12:17:29;8.25;;;4.68;;
15114;SDS011;7658;51.456;7.622;2022-07-23T12:19:57;6.00;;;4.30;;
15114;SDS011;7658;51.456;7.622;2022-07-23T12:22:26;5.30;;;4.38;;
15114;SDS011;7658;51.456;7.622;2022-07-23T12:25:01;5.15;;;4.57;;
15114;SDS011;7658;51.456;7.622;2022-07-23T12:27:31;5.90;;;4.47;;
15114;SDS011;7658;51.456;7.622;2022-07-23T12:29:57;5.45;;;4.20;;
15114;SDS011;7658;51.456;7.622;2022-07-23T12:32:26;6.13;;;4.47;;
15114;SDS011;7658;51.456;7.622;2022-07-23T12:35:06;8.02;;;5.60;;
15114;SDS011;7658;51.456;7.622;2022-07-23T12:37:34;6.40;;;4.47;;
15114;SDS011;7658;51.456;7.622;2022-07-23T12:42:52;8.55;;;5.90;;
15114;SDS011;7658;51.456;7.622;2022-07-23T12:45:24;9.52;;;5.85;;
15114;SDS011;7658;51.456;7.622;2022-07-23T12:47:58;6.90;;;5.75;;
15114;SDS011;7658;51.456;7.622;2022-07-23T12:50:35;5.93;;;4.70;;
15114;SDS011;7658;51.456;7.622;2022-07-23T12:53:08;5.38;;;4.88;;
15114;SDS011;7658;51.456;7.622;2022-07-23T12:55:39;7.00;;;5.28;;
15114;SDS011;7658;51.456;7.622;2022-07-23T12:58:19;5.57;;;4.80;;
15114;SDS011;7658;51.456;7.622;2022-07-23T13:00:55;7.15;;;4.82;;
15114;SDS011;7658;51.456;7.622;2022-07-23T13:05:57;6.15;;;4.93;;
15114;SDS011;7658;51.456;7.622;2022-07-23T13:08:25;7.07;;;5.15;;
15114;SDS011;7658;51.456;7.622;2022-07-23T13:10:53;4.90;;;4.00;;
15114;SDS011;7658;51.456;7.622;2022-07-23T13:13:24;4.53;;;4.10;;
15114;SDS011;7658;51.456;7.622;2022-07-23T13:15:51;5.63;;;4.30;;
15114;SDS011;7658;51.456;7.622;2022-07-23T13:18:18;7.20;;;5.28;;
15114;SDS011;7658;51.456;7.622;2022-07-23T13:20:45;5.03;;;3.60;;
15114;SDS011;7658;51.456;7.622;2022-07-23T13:23:12;4.35;;;3.55;;
15114;SDS011;7658;51.456;7.622;2022-07-23T13:25:38;5.50;;;3.60;;
15114;SDS011;7658;51.456;7.622;2022-07-23T13:28:04;5.53;;;3.45;;
15114;SDS011;7658;51.456;7.622;2022-07-23T13:30:30;4.20;;;3.80;;
15114;SDS011;7658;51.456;7.622;2022-07-23T13:32:56;4.40;;;3.80;;
15114;SDS011;7658;51.456;7.622;2022-07-23T13:35:22;7.00;;;3.58;;
15114;SDS011;7658;51.456;7.622;2022-07-23T13:37:48;7.43;;;3.60;;
15114;SDS011;7658;51.456;7.622;2022-07-23T13:40:14;6.32;;;4.28;;
15114;SDS011;7658;51.456;7.622;2022-07-23T13:42:40;5.78;;;3.95;;
15114;SDS011;7658;51.456;7.622;2022-07-23T13:45:06;5.20;;;4.20;;
15114;SDS011;7658;51.456;7.622;2022-07-23T13:47:32;4.10;;;3.58;;
15114;SDS011;7658;51.456;7.622;2022-07-23T13:49:59;3.65;;;3.25;;
15114;SDS011;7658;51.456;7.622;2022-07-23T13:52:24;5.18;;;3.08;;
15114;SDS011;7658;51.456;7.622;2022-07-23T13:54:50;6.45;;;3.85;;
15114;SDS011;7658;51.456;7.622;2022-07-23T13:57:16;5.10;;;3.28;;
15114;SDS011;7658;51.456;7.622;2022-07-23T13:59:42;5.45;;;3.80;;
15114;SDS011;7658;51.456;7.622;2022-07-23T14:02:08;5.43;;;3.58;;
15114;SDS011;7658;51.456;7.622;2022-07-23T14:04:34;3.05;;;2.63;;
15114;SDS011;7658;51.456;7.622;2022-07-23T14:07:00;3.15;;;2.65;;
15114;SDS011;7658;51.456;7.622;2022-07-23T14:09:26;4.00;;;2.90;;
15114;SDS011;7658;51.456;7.622;2022-07-23T14:11:52;4.88;;;2.97;;
15114;SDS011;7658;51.456;7.622;2022-07-23T14:14:18;5.13;;;2.78;;
15114;SDS011;7658;51.456;7.622;2022-07-23T14:16:44;6.15;;;3.17;;
15114;SDS011;7658;51.456;7.622;2022-07-23T14:19:10;3.67;;;3.00;;
15114;SDS011;7658;51.456;7.622;2022-07-23T14:21:37;6.10;;;3.45;;
15114;SDS011;7658;51.456;7.622;2022-07-23T14:24:03;3.78;;;2.78;;
15114;SDS011;7658;51.456;7.622;2022-07-23T14:26:29;7.50;;;2.58;;
15114;SDS011;7658;51.456;7.622;2022-07-23T14:28:55;5.38;;;2.92;;
15114;SDS011;7658;51.456;7.622;2022-07-23T14:31:21;3.85;;;3.00;;
15114;SDS011;7658;51.456;7.622;2022-07-23T14:33:47;2.85;;;2.30;;
15114;SDS011;7658;51.456;7.622;2022-07-23T14:36:14;5.85;;;2.67;;
15114;SDS011;7658;51.456;7.622;2022-07-23T14:38:40;6.50;;;3.45;;
15114;SDS011;7658;51.456;7.622;2022-07-23T14:41:06;5.13;;;3.03;;
15114;SDS011;7658;51.456;7.622;2022-07-23T14:43:33;2.72;;;2.47;;
15114;SDS011;7658;51.456;7.622;2022-07-23T14:45:59;4.38;;;2.90;;
15114;SDS011;7658;51.456;7.622;2022-07-23T14:48:24;4.35;;;2.95;;
15114;SDS011;7658;51.456;7.622;2022-07-23T14:50:50;4.88;;;3.10;;
15114;SDS011;7658;51.456;7.622;2022-07-23T14:53:16;5.40;;;2.70;;
15114;SDS011;7658;51.456;7.622;2022-07-23T14:55:42;3.50;;;2.60;;
15114;SDS011;7658;51.456;7.622;2022-07-23T14:58:08;3.80;;;3.00;;
15114;SDS011;7658;51.456;7.622;2022-07-23T15:00:34;4.55;;;2.70;;
15114;SDS011;7658;51.456;7.622;2022-07-23T15:03:00;4.35;;;2.80;;
15114;SDS011;7658;51.456;7.622;2022-07-23T15:05:25;4.28;;;2.80;;
15114;SDS011;7658;51.456;7.622;2022-07-23T15:07:53;3.33;;;2.65;;
15114;SDS011;7658;51.456;7.622;2022-07-23T15:10:18;4.13;;;3.20;;
15114;SDS011;7658;51.456;7.622;2022-07-23T15:12:44;4.10;;;2.78;;
15114;SDS011;7658;51.456;7.622;2022-07-23T15:15:10;4.07;;;2.47;;
15114;SDS011;7658;51.456;7.622;2022-07-23T15:17:35;2.50;;;2.30;;
15114;SDS011;7658;51.456;7.622;2022-07-23T15:20:01;3.53;;;2.50;;
15114;SDS011;7658;51.456;7.622;2022-07-23T15:22:28;3.65;;;2.70;;
15114;SDS011;7658;51.456;7.622;2022-07-23T15:24:54;5.00;;;4.28;;
15114;SDS011;7658;51.456;7.622;2022-07-23T15:27:19;4.35;;;3.22;;
15114;SDS011;7658;51.456;7.622;2022-07-23T15:29:45;2.65;;;2.40;;
15114;SDS011;7658;51.456;7.622;2022-07-23T15:32:11;5.60;;;2.72;;
15114;SDS011;7658;51.456;7.622;2022-07-23T15:34:37;4.55;;;2.58;;
15114;SDS011;7658;51.456;7.622;2022-07-23T15:37:04;5.13;;;3.00;;
15114;SDS011;7658;51.456;7.622;2022-07-23T15:39:31;4.20;;;2.90;;
15114;SDS011;7658;51.456;7.622;2022-07-23T15:41:58;3.28;;;2.50;;